METAR Data
IDs: Format: Raw Decoded Include TAF

Data at: 2059 UTC 22 Sep 2020

KTKV 222055Z AUTO 27003KT 7SM CLR 26/10 A3006 RMK AO2 T02550103 PWINO
KTKV 222035Z AUTO 00000KT 10SM CLR 26/11 A3006 RMK AO2 T02570107 PWINO
KTKV 222015Z AUTO 26004KT 10SM CLR 26/11 A3007 RMK AO2 T02570108 PWINO
KTKV 221955Z AUTO 26004KT 10SM CLR 26/11 A3007 RMK AO2 T02560106 PWINO
KTKV 221935Z AUTO 00000KT 10SM CLR 26/11 A3007 RMK AO2 T02550111 PWINO
KTKV 221915Z AUTO 00000KT 10SM CLR 26/10 A3008 RMK AO2 T02550099 PWINO
KTKV 221855Z AUTO 00000KT 10SM CLR 25/10 A3009 RMK AO2 T02520104 PWINO
KTKV 221835Z AUTO 26005KT 10SM CLR 25/10 A3010 RMK AO2 T02520103 PWINO
KTKV 221815Z AUTO 00000KT 10SM CLR 25/12 A3011 RMK AO2 T02460118 PWINO
KTKV 221755Z AUTO 00000KT 10SM CLR 24/14 A3012 RMK AO2 T02400135 10240 20065 PWINO
KTKV 221735Z AUTO 00000KT 10SM CLR 24/14 A3012 RMK AO2 T02390142 PWINO
KTKV 221715Z AUTO 00000KT 10SM CLR 23/14 A3013 RMK AO2 T02300140 PWINO
KTKV 221655Z AUTO 00000KT 10SM CLR 22/14 A3013 RMK AO2 T02210141 PWINO
KTKV 221635Z AUTO 00000KT 10SM CLR 22/14 A3013 RMK AO2 T02150141 PWINO
KTKV 221615Z AUTO 00000KT 10SM CLR 21/14 A3014 RMK AO2 T02050140 PWINO
KTKV 221555Z AUTO 00000KT 10SM CLR 20/14 A3014 RMK AO2 T01970140 PWINO
KTKV 221535Z AUTO 00000KT 10SM CLR 19/13 A3015 RMK AO2 T01850132 PWINO
KTKV 221515Z AUTO 00000KT 10SM CLR 18/13 A3015 RMK AO2 T01760131 PWINO
KTKV 221455Z AUTO 00000KT 10SM CLR 16/13 A3015 RMK AO2 T01630126 PWINO
KTKV 221435Z AUTO 00000KT 10SM CLR 15/12 A3015 RMK AO2 T01500119 PWINO
KTKV 221415Z AUTO 00000KT 10SM CLR 13/12 A3015 RMK AO2 T01340116 PWINO
KTKV 221355Z AUTO 00000KT 10SM CLR 12/12 A3015 RMK AO2 T01220118 PWINO
KTKV 221335Z AUTO 00000KT 10SM CLR 11/11 A3016 RMK AO2 T01080105 PWINO
KTKV 221315Z AUTO 00000KT 10SM CLR 09/09 A3016 RMK AO2 T00880085 PWINO
KTKV 221255Z AUTO 00000KT 7SM CLR 08/07 A3015 RMK AO2 T00760073 PWINO
KTKV 221235Z AUTO 00000KT 7SM CLR 07/06 A3015 RMK AO2 T00670064 PWINO
KTKV 221215Z AUTO 00000KT 7SM CLR 07/06 A3015 RMK AO2 T00650061 PWINO
KTKV 221155Z AUTO 00000KT 4SM CLR 07/06 A3015 RMK AO2 T00650061 10113 20063 PWINO
KTKV 221135Z AUTO 00000KT 4SM CLR 06/06 A3015 RMK AO2 T00630059 PWINO
KTKV 221115Z AUTO 00000KT 2 1/2SM CLR 07/06 A3015 RMK AO2 VIS 1V5 T00680064 PWINO
KTKV 221055Z AUTO 00000KT 7SM CLR 08/07 A3014 RMK AO2 T00750072 PWINO
KTKV 221035Z AUTO 00000KT 7SM CLR 07/07 A3014 RMK AO2 T00710067 PWINO
KTKV 221015Z AUTO 00000KT 7SM CLR 07/07 A3014 RMK AO2 T00710067 PWINO
KTKV 220955Z AUTO 00000KT 10SM CLR 08/07 A3014 RMK AO2 T00770072 PWINO
KTKV 220935Z AUTO 00000KT 10SM CLR 08/08 A3014 RMK AO2 T00810076 PWINO
KTKV 220915Z AUTO 00000KT 10SM CLR 08/08 A3014 RMK AO2 T00820076 PWINO
KTKV 220855Z AUTO 00000KT 10SM CLR 09/08 A3014 RMK AO2 T00860080 PWINO
KTKV 220835Z AUTO 00000KT 10SM CLR 09/08 A3015 RMK AO2 T00900082 PWINO
KTKV 220815Z AUTO 00000KT 10SM CLR 09/08 A3015 RMK AO2 T00900082 PWINO
KTKV 220755Z AUTO 00000KT 10SM CLR 09/08 A3015 RMK AO2 T00910082 PWINO
KTKV 220735Z AUTO 00000KT 10SM CLR 09/08 A3015 RMK AO2 T00910081 PWINO
KTKV 220715Z AUTO 00000KT 10SM CLR 09/08 A3015 RMK AO2 T00940082 PWINO
KTKV 220655Z AUTO 00000KT 10SM CLR 10/09 A3015 RMK AO2 T01000085 PWINO
KTKV 220635Z AUTO 00000KT 10SM CLR 11/09 A3015 RMK AO2 T01050087 PWINO
KTKV 220615Z AUTO 00000KT 10SM CLR 11/09 A3015 RMK AO2 T01110086 PWINO
KTKV 220555Z AUTO 00000KT 10SM CLR 11/09 A3015 RMK AO2 T01110087 10148 20110 402150066 PWINO
KTKV 220535Z AUTO 00000KT 10SM CLR 12/09 A3015 RMK AO2 T01160087 PWINO
KTKV 220515Z AUTO 00000KT 10SM CLR 12/09 A3015 RMK AO2 T01180089 PWINO
KTKV 220455Z AUTO 00000KT 10SM CLR 13/09 A3016 RMK AO2 T01270090 PWINO
KTKV 220435Z AUTO 00000KT 10SM CLR 13/09 A3016 RMK AO2 T01300091 PWINO
KTKV 220415Z AUTO 00000KT 10SM CLR 13/09 A3016 RMK AO2 T01250092 PWINO
KTKV 220355Z AUTO 00000KT 10SM CLR 13/10 A3016 RMK AO2 T01260096 PWINO
KTKV 220335Z AUTO 00000KT 10SM CLR 13/10 A3016 RMK AO2 T01290100 PWINO
KTKV 220315Z AUTO 00000KT 10SM CLR 14/10 A3016 RMK AO2 T01350101 PWINO
KTKV 220255Z AUTO 00000KT 10SM CLR 14/10 A3016 RMK AO2 T01370104 PWINO
KTKV 220235Z AUTO 00000KT 10SM CLR 14/11 A3016 RMK AO2 T01390106 PWINO
KTKV 220215Z AUTO 00000KT 10SM CLR 14/11 A3016 RMK AO2 T01410109 PWINO
KTKV 220155Z AUTO 00000KT 10SM SCT095 14/11 A3016 RMK AO2 T01410112 PWINO
KTKV 220135Z AUTO 00000KT 10SM SCT095 14/11 A3016 RMK AO2 T01400111 PWINO
KTKV 220115Z AUTO 00000KT 10SM SCT110 14/11 A3016 RMK AO2 T01420112 PWINO
KTKV 220055Z AUTO 00000KT 10SM BKN100 OVC120 15/12 A3015 RMK AO2 T01470116 PWINO
KTKV 220035Z AUTO 00000KT 10SM OVC100 15/12 A3014 RMK AO2 T01450120 PWINO
KTKV 220015Z AUTO 00000KT 10SM BKN110 14/13 A3013 RMK AO2 T01380125 PWINO
KTKV 212355Z AUTO 00000KT 10SM SCT110 14/13 A3014 RMK AO2 T01390126 10215 20139 PWINO
KTKV 212335Z AUTO 00000KT 10SM SCT100 SCT120 15/13 A3014 RMK AO2 T01470128 PWINO
KTKV 212315Z AUTO 00000KT 10SM BKN110 15/13 A3015 RMK AO2 T01500130 PWINO
KTKV 212255Z AUTO 13003KT 7SM OVC110 15/13 A3013 RMK AO2 T01500131 PWINO
KTKV 212235Z AUTO 00000KT 10SM OVC110 17/12 A3017 RMK AO2 T01670120 PWINO
KTKV 212215Z AUTO 00000KT 7SM BKN110 18/11 A3017 RMK AO2 T01820111 PWINO
KTKV 212155Z AUTO 19004KT 10SM OVC095 19/11 A3015 RMK AO2 T01860111 PWINO
KTKV 212135Z AUTO 00000KT 10SM BKN095 19/11 A3014 RMK AO2 T01910110 PWINO
KTKV 212115Z AUTO 18004KT 10SM SCT095 21/11 A3013 RMK AO2 T02050112 PWINO
KTKV 212055Z AUTO 17005KT 10SM SCT095 21/11 A3014 RMK AO2 T02110111 PWINO
KTKV 212035Z AUTO 00000KT 10SM SCT095 20/11 A3015 RMK AO2 T02010110 PWINO
KTKV 212015Z AUTO 18004KT 10SM CLR 21/11 A3015 RMK AO2 T02080110 PWINO
KTKV 211955Z AUTO 00000KT 10SM CLR 22/11 A3016 RMK AO2 T02150109 PWINO
KTKV 211935Z AUTO 17003KT 10SM CLR 20/11 A3017 RMK AO2 T02010108 PWINO
KTKV 211915Z AUTO 17003KT 10SM CLR 21/11 A3018 RMK AO2 T02070105 PWINO
KTKV 211855Z AUTO 16003KT 10SM SCT085 20/10 A3018 RMK AO2 T02020103 PWINO
KTKV 211835Z AUTO 00000KT 10SM SCT085 20/10 A3020 RMK AO2 T01960102 PWINO
KTKV 211815Z AUTO 00000KT 10SM CLR 19/10 A3021 RMK AO2 T01900098 PWINO
KTKV 211755Z AUTO 19003KT 10SM CLR 19/10 A3021 RMK AO2 T01900098 10190 20088 PWINO
KTKV 211735Z AUTO 00000KT 10SM CLR 18/09 A3021 RMK AO2 T01810093 PWINO
KTKV 211715Z AUTO 00000KT 10SM CLR 17/09 A3022 RMK AO2 T01680087 PWINO
KTKV 211655Z AUTO 00000KT 10SM CLR 16/09 A3023 RMK AO2 T01620087 PWINO
KTKV 211635Z AUTO 19004KT 10SM CLR 16/08 A3023 RMK AO2 T01630080 PWINO
KTKV 211615Z AUTO 00000KT 10SM CLR 16/08 A3024 RMK AO2 T01620077 PWINO
KTKV 211555Z AUTO 00000KT 10SM CLR 16/07 A3025 RMK AO2 T01600072 PWINO
KTKV 211535Z AUTO 16003KT 10SM CLR 16/07 A3026 RMK AO2 T01560071 PWINO
KTKV 211515Z AUTO 00000KT 10SM CLR 15/07 A3025 RMK AO2 T01450067 PWINO
KTKV 211455Z AUTO 00000KT 10SM CLR 13/07 A3026 RMK AO2 T01320066 PWINO
KTKV 211435Z AUTO 00000KT 10SM CLR 13/06 A3026 RMK AO2 T01270059 PWINO
KTKV 211415Z AUTO 00000KT 10SM CLR 12/06 A3027 RMK AO2 T01230060 PWINO
KTKV 211355Z AUTO 00000KT 10SM CLR 12/06 A3026 RMK AO2 T01150056 PWINO
KTKV 211335Z AUTO 00000KT 10SM CLR 10/05 A3026 RMK AO2 T01020053 PWINO
KTKV 211315Z AUTO 00000KT 10SM CLR 10/05 A3027 RMK AO2 T01000054 PWINO
KTKV 211255Z AUTO 00000KT 10SM CLR 09/05 A3027 RMK AO2 T00910047 PWINO
KTKV 211235Z AUTO 00000KT 10SM CLR 09/05 A3026 RMK AO2 T00900048 PWINO
KTKV 211215Z AUTO 00000KT 10SM CLR 09/05 A3027 RMK AO2 T00900047 PWINO
KTKV 211155Z AUTO 00000KT 10SM CLR 09/05 A3027 RMK AO2 T00900048 10096 20066 PWINO
KTKV 211135Z AUTO 00000KT 10SM CLR 09/05 A3027 RMK AO2 T00900048 PWINO
KTKV 211115Z AUTO 00000KT 10SM CLR 09/05 A3027 RMK AO2 T00880049 PWINO
KTKV 211055Z AUTO 00000KT 10SM CLR 09/05 A3027 RMK AO2 T00870050 PWINO
KTKV 211035Z AUTO 00000KT 10SM CLR 08/05 A3027 RMK AO2 T00800051 PWINO
KTKV 211015Z AUTO 00000KT 10SM CLR 07/05 A3027 RMK AO2 T00680048 PWINO
KTKV 210955Z AUTO 00000KT 10SM CLR 07/05 A3028 RMK AO2 T00660047 PWINO
KTKV 210935Z AUTO 00000KT 10SM CLR 07/05 A3028 RMK AO2 T00730048 PWINO
KTKV 210915Z AUTO 00000KT 10SM CLR 09/05 A3028 RMK AO2 T00850048 PWINO